Time;durP1;ratioP1;P1;durP2;ratioP2;P2;SDS_P1;SDS_P2;PMS_P1;PMS_P2;Temp;Humidity;BMP_temperature;BMP_pressure;BME280_temperature;BME280_humidity;BME280_pressure;Samples;Min_cycle;Max_cycle;Signal;HPM_P1;HPM_P2
2023/05/25 00:02:17;;;;;;;16.63;8.27;;;;;;;6.30;100.00;162213.78;5070666;28;20041;-66
2023/05/25 00:04:47;;;;;;;11.07;7.80;;;;;;;6.26;100.00;162203.06;5068988;28;20044;-66
2023/05/25 00:07:13;;;;;;;12.30;7.95;;;;;;;6.21;100.00;162189.59;5070554;28;20048;-66
2023/05/25 00:09:40;;;;;;;14.27;8.20;;;;;;;6.09;100.00;162157.28;5068779;28;20037;-66
2023/05/25 00:12:06;;;;;;;11.23;7.68;;;;;;;6.20;100.00;162186.91;5070832;28;20028;-66
2023/05/25 00:14:31;;;;;;;12.10;8.27;;;;;;;6.21;100.00;162189.59;5069187;28;20060;-66
2023/05/25 00:16:57;;;;;;;12.60;8.80;;;;;;;6.18;100.00;162182.84;5070614;28;20078;-66
2023/05/25 00:19:23;;;;;;;9.40;7.65;;;;;;;6.12;100.00;162165.38;5069302;28;20503;-66
2023/05/25 00:21:49;;;;;;;9.13;7.07;;;;;;;6.09;100.00;162157.28;5070748;28;20032;-66
2023/05/25 00:24:15;;;;;;;14.07;7.63;;;;;;;6.03;100.00;162143.84;5068133;28;20052;-66
2023/05/25 00:26:40;;;;;;;16.15;8.88;;;;;;;6.01;100.00;162138.44;5070454;28;20025;-66
2023/05/25 00:29:06;;;;;;;12.07;7.70;;;;;;;5.98;100.00;162128.97;5069451;28;20036;-66
2023/05/25 00:31:32;;;;;;;16.20;7.93;;;;;;;5.95;100.00;162120.91;5069854;28;20052;-66
2023/05/25 00:33:59;;;;;;;16.60;10.10;;;;;;;5.83;100.00;162089.97;5069235;28;20028;-66
2023/05/25 00:36:24;;;;;;;26.70;11.50;;;;;;;5.89;100.00;162106.09;5070775;28;20033;-66
2023/05/25 00:38:50;;;;;;;20.08;8.80;;;;;;;5.87;100.00;162100.72;5068408;28;20089;-67
2023/05/25 00:41:18;;;;;;;14.38;7.57;;;;;;;5.84;100.00;162092.66;5070590;28;20355;-67
2023/05/25 00:43:45;;;;;;;;;;;;;;;5.82;100.00;162087.25;5069160;28;20051;-68
2023/05/25 00:46:13;;;;;;;11.18;9.13;;;;;;;5.79;100.00;162079.16;5069948;28;19988;-68
2023/05/25 00:48:39;;;;;;;21.60;11.68;;;;;;;5.75;100.00;162068.44;5069680;28;20487;-68
2023/05/25 00:51:05;;;;;;;17.27;9.63;;;;;;;5.72;100.00;162063.03;5074764;28;20029;-68
2023/05/25 00:53:32;;;;;;;10.77;9.43;;;;;;;5.68;100.00;162052.28;5072311;28;20028;-68
2023/05/25 00:56:09;;;;;;;9.50;7.85;;;;;;;5.64;100.00;162041.50;5074602;28;20020;-68
2023/05/25 00:58:38;;;;;;;11.65;8.55;;;;;;;5.60;100.00;162030.75;5072520;28;20518;-68
2023/05/25 01:01:10;;;;;;;16.55;10.02;;;;;;;5.59;100.00;162028.06;5073568;28;20056;-68
2023/05/25 01:03:36;;;;;;;19.13;8.18;;;;;;;5.55;100.00;162017.28;5071514;28;20123;-68
2023/05/25 01:06:06;;;;;;;8.73;7.82;;;;;;;5.55;100.00;162017.28;5074511;28;20036;-69
2023/05/25 01:08:33;;;;;;;7.85;6.63;;;;;;;5.52;100.00;162009.22;5071276;28;20108;-68
2023/05/25 01:11:02;;;;;;;16.77;9.23;;;;;;;5.51;100.00;162006.53;5074465;28;20378;-68
2023/05/25 01:13:28;;;;;;;20.98;9.20;;;;;;;5.51;100.00;162006.53;5072582;28;20141;-67
2023/05/25 01:15:54;;;;;;;12.95;8.35;;;;;;;5.49;100.00;162001.13;5073511;28;20035;-68
2023/05/25 01:18:20;;;;;;;21.13;9.52;;;;;;;5.50;100.00;162005.19;5073877;28;20035;-68
2023/05/25 01:20:58;;;;;;;15.35;9.02;;;;;;;5.56;100.00;162021.34;5072164;28;20044;-68
2023/05/25 01:23:31;;;;;;;18.15;9.52;;;;;;;5.63;100.00;162038.81;5071534;28;20021;-67
2023/05/25 01:26:01;;;;;;;15.80;9.93;;;;;;;5.66;100.00;162045.56;5073977;28;20100;-68
2023/05/25 01:28:37;;;;;;;16.92;10.30;;;;;;;5.69;100.00;162055.00;5072418;28;20386;-67
2023/05/25 01:31:04;;;;;;;22.17;12.30;;;;;;;5.71;100.00;162059.00;5074100;28;20024;-68
2023/05/25 01:33:30;;;;;;;12.35;10.65;;;;;;;5.74;100.00;162065.72;5071916;28;20020;-67
2023/05/25 01:35:57;;;;;;;12.65;10.63;;;;;;;5.69;100.00;162055.00;5073205;28;20075;-68
2023/05/25 01:38:22;;;;;;;22.55;11.50;;;;;;;5.67;100.00;162049.59;5071843;28;20031;-67
2023/05/25 01:40:47;;;;;;;17.45;12.07;;;;;;;5.67;100.00;162049.59;5073278;28;20028;-68
2023/05/25 01:43:13;;;;;;;31.35;11.82;;;;;;;5.68;100.00;162052.28;5073060;28;20047;-67
2023/05/25 01:45:38;;;;;;;15.38;9.35;;;;;;;5.67;100.00;162049.59;5071417;28;20033;-66
2023/05/25 01:48:29;;;;;;;11.02;7.93;;;;;;;5.58;100.00;162025.38;5073388;28;20082;-67
2023/05/25 01:51:00;;;;;;;13.20;7.65;;;;;;;5.43;100.00;161985.00;5070667;28;20072;-68
2023/05/25 01:53:47;;;;;;;11.35;8.45;;;;;;;5.33;100.00;161960.78;5071929;28;20023;-67
2023/05/25 01:56:13;;;;;;;21.45;10.05;;;;;;;5.28;100.00;161946.00;5073252;28;20095;-68
2023/05/25 01:58:44;;;;;;;19.30;11.45;;;;;;;5.28;100.00;161947.34;5071050;28;20032;-68
2023/05/25 02:01:11;;;;;;;12.73;11.07;;;;;;;5.27;100.00;161944.66;5072181;28;20067;-68
2023/05/25 02:03:40;;;;;;;14.77;9.85;;;;;;;5.24;100.00;161936.59;5071114;28;20020;-68
2023/05/25 02:06:07;;;;;;;19.45;10.25;;;;;;;5.21;100.00;161928.50;5072461;28;20640;-68
2023/05/25 02:08:32;;;;;;;19.77;10.30;;;;;;;5.18;100.00;161920.41;5071499;28;20028;-67
2023/05/25 02:10:57;;;;;;;17.35;9.23;;;;;;;5.18;100.00;161920.41;5072892;28;20115;-68
2023/05/25 02:13:23;;;;;;;14.32;10.57;;;;;;;5.16;100.00;161915.06;5070294;28;20058;-68
2023/05/25 02:15:48;;;;;;;20.30;10.73;;;;;;;5.20;100.00;161925.81;5072691;28;20021;-67
2023/05/25 02:18:16;;;;;;;24.30;11.93;;;;;;;5.19;100.00;161923.13;5072574;28;20025;-67
2023/05/25 02:20:42;;;;;;;17.23;10.23;;;;;;;5.24;100.00;161936.59;5070590;28;20095;-67
2023/05/25 02:23:08;;;;;;;20.73;11.60;;;;;;;5.21;100.00;161928.50;5072500;28;20023;-67
2023/05/25 02:25:33;;;;;;;23.42;13.05;;;;;;;5.20;100.00;161925.81;5070961;28;20041;-67
2023/05/25 02:27:58;;;;;;;32.88;12.65;;;;;;;5.18;100.00;161920.41;5071778;28;20029;-65
2023/05/25 02:30:24;;;;;;;13.75;9.70;;;;;;;5.20;100.00;161925.81;5071063;28;20569;-66
2023/05/25 02:32:49;;;;;;;17.75;10.82;;;;;;;5.16;100.00;161915.06;5072252;28;20418;-65
2023/05/25 02:35:15;;;;;;;11.80;8.18;;;;;;;5.05;100.00;161888.16;5070618;28;20044;-66
2023/05/25 02:37:40;;;;;;;20.98;10.73;;;;;;;4.92;100.00;161853.19;5071984;28;20112;-65
2023/05/25 02:40:06;;;;;;;11.63;10.30;;;;;;;4.96;100.00;161863.94;5070919;28;20439;-65
2023/05/25 02:42:31;;;;;;;16.42;9.70;;;;;;;4.89;100.00;161845.09;5071791;28;20036;-66
2023/05/25 02:44:57;;;;;;;19.67;10.35;;;;;;;4.90;100.00;161847.81;5070588;28;20040;-65
2023/05/25 02:47:22;;;;;;;22.13;12.98;;;;;;;4.94;100.00;161858.59;5071883;28;20476;-67
2023/05/25 02:49:47;;;;;;;23.65;10.70;;;;;;;5.00;100.00;161874.72;5068904;28;20045;-65
2023/05/25 02:52:13;;;;;;;17.17;11.70;;;;;;;5.07;100.00;161893.53;5071583;28;20025;-67
2023/05/25 02:54:38;;;;;;;20.27;13.05;;;;;;;5.13;100.00;161906.97;5070053;28;20044;-67
2023/05/25 02:57:04;;;;;;;19.33;11.98;;;;;;;5.18;100.00;161921.78;5071939;28;20044;-67
2023/05/25 02:59:30;;;;;;;19.13;12.75;;;;;;;5.18;100.00;161920.41;5069473;28;20052;-67
2023/05/25 03:01:55;;;;;;;22.05;12.93;;;;;;;5.33;100.00;161959.44;5071449;28;20091;-67
2023/05/25 03:04:20;;;;;;;14.82;11.00;;;;;;;5.36;100.00;161968.88;5069481;28;20044;-67
2023/05/25 03:06:46;;;;;;;14.63;13.02;;;;;;;5.53;100.00;162011.94;5069811;28;20390;-67
2023/05/25 03:09:12;;;;;;;19.77;14.32;;;;;;;5.63;100.00;162038.81;5070049;28;20514;-67
2023/05/25 03:11:37;;;;;;;14.40;10.88;;;;;;;5.79;100.00;162079.16;5071530;28;20443;-67
2023/05/25 03:14:02;;;;;;;18.83;11.57;;;;;;;5.90;100.00;162108.81;5069774;28;20040;-67
2023/05/25 03:16:28;;;;;;;16.35;11.60;;;;;;;5.97;100.00;162127.63;5071012;28;20471;-67
2023/05/25 03:18:53;;;;;;;27.95;13.15;;;;;;;6.09;100.00;162158.66;5069649;28;20043;-67
2023/05/25 03:21:21;;;;;;;18.42;12.60;;;;;;;6.20;100.00;162186.91;5070788;28;20016;-67
2023/05/25 03:23:46;;;;;;;19.52;10.38;;;;;;;6.31;100.00;162216.50;5069539;28;20041;-67
2023/05/25 03:26:12;;;;;;;31.38;14.20;;;;;;;6.41;100.00;162240.75;5070612;28;20070;-68
2023/05/25 03:28:37;;;;;;;25.08;13.43;;;;;;;6.51;100.00;162267.69;5069321;28;20036;-66
2023/05/25 03:31:03;;;;;;;21.05;11.70;;;;;;;6.62;100.00;162295.94;5071209;28;20430;-66
2023/05/25 03:33:28;;;;;;;19.95;11.43;;;;;;;6.72;100.00;162321.53;5069972;28;20020;-68
2023/05/25 03:35:54;;;;;;;15.45;11.90;;;;;;;6.80;100.00;162344.41;5071024;28;20017;-67
2023/05/25 03:38:19;;;;;;;27.05;14.80;;;;;;;6.90;100.00;162369.97;5071246;28;20046;-66
2023/05/25 03:40:45;;;;;;;18.85;13.02;;;;;;;7.01;100.00;162398.25;5068678;28;20048;-68
2023/05/25 03:43:10;;;;;;;21.50;14.30;;;;;;;7.12;100.00;162426.53;5070726;28;20024;-66
2023/05/25 03:45:35;;;;;;;21.52;11.93;;;;;;;7.22;100.00;162453.47;5069081;28;20044;-67
2023/05/25 03:48:01;;;;;;;20.38;13.77;;;;;;;7.28;100.00;162469.63;5071156;28;20024;-66
2023/05/25 03:50:26;;;;;;;20.13;12.90;;;;;;;7.39;100.00;162497.91;5068687;28;20047;-66
2023/05/25 03:52:51;;;;;;;28.25;14.82;;;;;;;7.40;100.00;162499.28;5070918;28;20023;-66
2023/05/25 03:55:17;;;;;;;20.63;11.90;;;;;;;7.55;100.00;162538.34;5069643;28;20044;-66
2023/05/25 03:57:42;;;;;;;22.38;12.90;;;;;;;7.62;100.00;162558.56;5070563;28;20024;-66
2023/05/25 04:00:09;;;;;;;34.63;17.52;;;;;;;7.66;100.00;162566.63;5069489;28;20063;-66
2023/05/25 04:02:35;;;;;;;18.90;15.15;;;;;;;7.67;100.00;162569.31;5070651;28;20028;-66
2023/05/25 04:05:00;;;;;;;21.58;12.50;;;;;;;7.74;100.00;162588.19;5068679;28;22142;-66
2023/05/25 04:07:29;;;;;;;32.60;15.57;;;;;;;7.77;100.00;162596.28;5070942;28;20031;-66
2023/05/25 04:09:58;;;;;;;22.83;13.65;;;;;;;7.73;100.00;162585.47;5069536;28;20518;-66
2023/05/25 04:12:23;;;;;;;26.30;13.20;;;;;;;7.78;100.00;162599.00;5069733;28;20379;-65
2023/05/25 04:14:49;;;;;;;24.23;12.70;;;;;;;7.77;100.00;162596.28;5068343;28;20041;-62
2023/05/25 04:17:16;;;;;;;31.67;14.30;;;;;;;7.72;100.00;162582.78;5070426;28;20029;-63
2023/05/25 04:19:41;;;;;;;30.63;14.07;;;;;;;7.69;100.00;162574.72;5068205;28;20127;-63
2023/05/25 04:22:06;;;;;;;22.90;14.40;;;;;;;7.70;100.00;162577.44;5070539;28;20020;-63
2023/05/25 04:24:33;;;;;;;20.52;14.43;;;;;;;7.70;100.00;162577.44;5073247;28;20044;-61
2023/05/25 04:26:58;;;;;;;21.42;12.65;;;;;;;7.69;100.00;162574.72;5077192;28;20024;-61
2023/05/25 04:29:24;;;;;;;21.63;12.07;;;;;;;7.65;100.00;162563.94;5075246;28;20037;-61
2023/05/25 04:31:50;;;;;;;27.55;13.70;;;;;;;7.60;100.00;162553.16;5076690;28;20364;-61
2023/05/25 04:34:15;;;;;;;37.53;16.27;;;;;;;7.55;100.00;162538.34;5075439;28;20055;-60
2023/05/25 04:36:42;;;;;;;23.25;13.32;;;;;;;7.61;100.00;162555.88;5076246;28;20033;-61
2023/05/25 04:39:08;;;;;;;21.20;14.68;;;;;;;7.65;100.00;162563.94;5075369;28;20441;-61
2023/05/25 04:41:34;;;;;;;24.23;15.18;;;;;;;7.73;100.00;162585.47;5076606;28;20024;-61
2023/05/25 04:44:00;;;;;;;25.85;14.45;;;;;;;7.78;100.00;162599.00;5075670;28;20040;-61
2023/05/25 04:46:25;;;;;;;23.65;13.75;;;;;;;7.80;100.00;162604.34;5076995;28;20482;-62
2023/05/25 04:48:51;;;;;;;31.85;14.43;;;;;;;7.87;100.00;162623.22;5075286;28;20029;-61
2023/05/25 04:51:16;;;;;;;20.48;12.40;;;;;;;7.98;100.00;162651.50;5077020;28;20479;-63
2023/05/25 04:53:41;;;;;;;18.92;13.23;;;;;;;8.12;100.00;162687.91;5075663;28;21981;-62
2023/05/25 04:56:07;;;;;;;22.60;15.18;;;;;;;8.29;100.00;162731.03;5076939;28;20024;-62
2023/05/25 04:58:32;;;;;;;35.85;15.55;;;;;;;8.37;100.00;162752.63;5072396;28;20494;-63
2023/05/25 05:00:58;;;;;;;26.10;14.73;;;;;;;8.46;100.00;162776.84;5064659;28;20040;-62
2023/05/25 05:03:23;;;;;;;25.92;13.43;;;;;;;8.50;100.00;162787.72;5061867;28;20064;-62
2023/05/25 05:05:49;;;;;;;18.08;13.82;;;;;;;8.61;100.00;162816.00;5064349;28;20036;-63
2023/05/25 05:08:14;;;;;;;22.15;13.75;;;;;;;8.74;100.00;162849.72;5063984;28;20455;-63
2023/05/25 05:10:39;;;;;;;26.77;13.82;;;;;;;8.86;100.00;162882.06;5062334;28;20063;-63
2023/05/25 05:13:05;;;;;;;23.75;12.88;;;;;;;9.01;100.00;162919.81;5064479;28;20131;-65
2023/05/25 05:15:31;;;;;;;25.80;13.85;;;;;;;9.10;100.00;162944.09;5062854;28;20058;-66
2023/05/25 05:17:57;;;;;;;37.45;14.35;;;;;;;9.12;100.00;162949.47;5065437;28;20407;-65
2023/05/25 05:20:23;;;;;;;26.13;12.27;;;;;;;9.24;100.00;162980.47;5065416;28;20068;-63
2023/05/25 05:22:48;;;;;;;26.90;12.82;;;;;;;9.32;100.00;163000.75;5066441;28;20016;-62
2023/05/25 05:25:13;;;;;;;30.33;13.20;;;;;;;9.36;100.00;163011.50;5061556;28;20037;-63
2023/05/25 05:27:39;;;;;;;25.20;12.43;;;;;;;9.33;100.00;163003.44;5072734;28;20398;-62
2023/05/25 05:30:05;;;;;;;23.52;12.50;;;;;;;9.34;100.00;163006.16;5075436;28;20041;-63
2023/05/25 05:32:30;;;;;;;25.30;11.77;;;;;;;9.38;100.00;163016.91;5076649;28;20028;-63
2023/05/25 05:34:56;;;;;;;18.50;12.80;;;;;;;9.43;100.00;163029.06;5073137;28;20048;-63
2023/05/25 05:37:21;;;;;;;17.73;11.75;;;;;;;9.48;100.00;163043.91;5071464;28;20036;-63
2023/05/25 05:39:46;;;;;;;29.98;17.98;;;;;;;9.46;100.00;163038.50;5068133;28;20045;-63
2023/05/25 05:42:12;;;;;;;25.90;18.23;;;;;;;9.58;100.00;163069.53;5071233;28;20472;-62
2023/05/25 05:44:37;;;;;;;26.58;16.27;;;;;;;9.62;100.00;163078.97;5070024;28;20063;-63
2023/05/25 05:47:02;;;;;;;21.98;14.27;;;;;;;9.63;100.00;163081.69;5071266;28;20421;-63
2023/05/25 05:49:29;;;;;;;25.98;14.55;;;;;;;9.64;100.00;163084.38;5070564;28;20048;-63
2023/05/25 05:51:54;;;;;;;28.80;16.05;;;;;;;9.77;100.00;163119.44;5073062;28;20031;-63
2023/05/25 05:54:19;;;;;;;20.50;13.35;;;;;;;9.87;100.00;163143.69;5071801;28;20415;-63
2023/05/25 05:56:45;;;;;;;22.15;13.73;;;;;;;9.97;100.00;163170.69;5072223;28;20024;-63
2023/05/25 05:59:10;;;;;;;26.55;13.90;;;;;;;10.02;100.00;163184.19;5071389;28;20044;-63
2023/05/25 06:01:36;;;;;;;22.05;13.05;;;;;;;10.20;100.00;163230.06;5072764;28;20139;-63
2023/05/25 06:04:01;;;;;;;19.80;10.70;;;;;;;10.32;100.00;163262.44;5071242;28;20044;-64
2023/05/25 06:06:27;;;;;;;17.38;10.25;;;;;;;10.43;100.00;163292.22;5072974;28;20026;-64
2023/05/25 06:08:53;;;;;;;26.90;14.70;;;;;;;10.60;100.00;163335.41;5068793;28;20044;-64
2023/05/25 06:11:18;;;;;;;18.40;10.85;;;;;;;10.89;100.00;163411.00;5070698;28;20024;-63
2023/05/25 06:13:43;;;;;;;17.05;11.55;;;;;;;11.11;100.00;163469.03;5070989;28;20039;-63
2023/05/25 06:16:09;;;;;;;21.08;12.25;;;;;;;11.19;100.00;163489.31;5072710;28;20036;-63
2023/05/25 06:18:34;;;;;;;23.52;10.48;;;;;;;11.27;100.00;163510.94;5067444;28;20016;-63
2023/05/25 06:21:00;;;;;;;24.30;11.07;;;;;;;11.38;100.00;163540.63;5052773;28;20067;-64
2023/05/25 06:23:25;;;;;;;18.98;11.27;;;;;;;11.53;100.00;163578.41;5050967;28;20021;-63
2023/05/25 06:25:51;;;;;;;20.80;10.90;;;;;;;11.50;100.00;163570.34;5033652;28;20025;-64
2023/05/25 06:28:17;;;;;;;22.45;12.07;;;;;;;11.66;100.00;163612.19;5032603;28;20029;-63
2023/05/25 06:30:42;;;;;;;27.13;11.75;;;;;;;11.65;100.00;163610.88;5050426;28;20044;-63
2023/05/25 06:33:07;;;;;;;16.27;9.27;;;;;;;11.75;100.00;163637.84;5052168;28;20020;-63
2023/05/25 06:35:33;;;;;;;17.48;10.25;;;;;;;11.71;100.00;163627.06;5034560;28;20060;-64
2023/05/25 06:37:58;;;;;;;26.40;11.98;;;;;;;11.77;100.00;163640.56;5051213;28;20460;-64
2023/05/25 06:40:23;;;;;;;25.30;10.95;;;;;;;11.73;100.00;163631.09;5067152;28;20033;-63
2023/05/25 06:42:49;;;;;;;21.83;10.15;;;;;;;11.78;100.00;163643.28;5071772;28;20039;-64
2023/05/25 06:45:15;;;;;;;24.15;10.00;;;;;;;11.82;100.00;163654.06;5053244;28;20403;-63
2023/05/25 06:47:40;;;;;;;23.92;10.95;;;;;;;11.99;100.00;163700.06;5051378;28;20059;-64
2023/05/25 06:50:06;;;;;;;28.20;10.05;;;;;;;12.02;100.00;163708.19;5050664;28;20048;-64
2023/05/25 06:52:32;;;;;;;20.27;8.82;;;;;;;12.16;100.00;163744.63;5052131;28;20017;-64
2023/05/25 06:54:57;;;;;;;14.70;10.93;;;;;;;12.26;100.00;163770.28;5049352;28;20037;-64
2023/05/25 06:57:23;;;;;;;22.88;9.80;;;;;;;12.26;100.00;163770.28;5052003;28;20017;-65
2023/05/25 06:59:48;;;;;;;20.17;9.65;;;;;;;12.43;100.00;163813.53;5050505;28;20044;-64
2023/05/25 07:02:14;;;;;;;20.20;11.73;;;;;;;12.41;100.00;163808.13;5051251;28;20044;-65
2023/05/25 07:04:39;;;;;;;25.92;12.18;;;;;;;12.34;100.00;163791.91;5050329;28;20056;-64
2023/05/25 07:07:05;;;;;;;20.60;9.43;;;;;;;12.27;100.00;163771.66;5051863;28;20033;-64
2023/05/25 07:09:31;;;;;;;18.77;10.40;;;;;;;12.31;100.00;163783.84;5049650;28;20036;-64
2023/05/25 07:11:56;;;;;;;26.50;10.20;;;;;;;12.46;100.00;163821.66;5051609;28;20495;-64
2023/05/25 07:14:21;;;;;;;17.98;8.68;;;;;;;12.64;100.00;163870.28;5050346;28;20036;-64
2023/05/25 07:16:47;;;;;;;26.08;9.15;;;;;;;12.66;100.00;163875.72;5051156;28;20490;-65
2023/05/25 07:19:12;;;;;;;17.48;7.72;;;;;;;12.56;100.00;163848.66;5050368;28;20055;-64
2023/05/25 07:21:38;;;;;;;25.67;9.48;;;;;;;12.48;100.00;163827.03;5051364;28;20518;-64
2023/05/25 07:24:03;;;;;;;20.35;10.15;;;;;;;12.63;100.00;163867.59;5049566;28;20041;-64
2023/05/25 07:26:32;;;;;;;21.05;9.60;;;;;;;12.64;100.00;163870.28;5051107;28;20038;-64
2023/05/25 07:28:58;;;;;;;19.75;8.65;;;;;;;12.77;100.00;163902.75;5050356;28;20119;-64
2023/05/25 07:31:23;;;;;;;26.33;8.82;;;;;;;12.42;100.00;163812.22;5051309;28;20419;-64
2023/05/25 07:33:49;;;;;;;18.00;7.32;;;;;;;12.56;100.00;163847.34;5049820;28;20041;-64
2023/05/25 07:36:15;;;;;;;20.70;9.30;;;;;;;12.52;100.00;163837.88;5051343;28;20035;-64
2023/05/25 07:38:41;;;;;;;19.63;8.25;;;;;;;12.73;100.00;163891.94;5049186;28;20037;-64
2023/05/25 07:41:06;;;;;;;15.98;8.85;;;;;;;12.85;100.00;163924.34;5051261;28;20383;-64
2023/05/25 07:43:31;;;;;;;15.05;8.18;;;;;;;13.03;100.00;163971.66;5052310;28;20020;-64
2023/05/25 07:45:57;;;;;;;15.88;7.40;;;;;;;13.27;100.00;164035.22;5070821;28;20494;-64
2023/05/25 07:48:22;;;;;;;23.10;9.35;;;;;;;13.31;100.00;164046.03;5069688;28;20025;-65
2023/05/25 07:50:47;;;;;;;19.67;8.77;;;;;;;13.11;100.00;163993.28;5070939;28;20017;-64
2023/05/25 07:53:13;;;;;;;18.15;8.30;;;;;;;13.13;100.00;163997.38;5070718;28;20027;-63
2023/05/25 07:55:38;;;;;;;38.40;9.57;;;;;;;13.11;100.00;163991.97;5068992;28;20051;-63
2023/05/25 07:58:06;;;;;;;18.58;7.53;;;;;;;12.97;100.00;163956.81;5070311;28;20028;-63
2023/05/25 08:00:31;;;;;;;16.87;7.67;;;;;;;13.13;100.00;163998.72;5069241;28;20060;-62
2023/05/25 08:02:56;;;;;;;18.95;8.07;;;;;;;13.41;100.00;164070.44;5070637;28;20116;-63
2023/05/25 08:05:22;;;;;;;11.05;7.05;;;;;;;13.84;100.00;164184.00;5069392;28;20041;-64
2023/05/25 08:07:47;;;;;;;12.50;6.72;;;;;;;14.03;100.00;164232.72;5070682;28;20361;-64
2023/05/25 08:10:12;;;;;;;18.05;8.55;;;;;;;14.25;100.00;164290.88;5069157;28;20059;-64
2023/05/25 08:12:38;;;;;;;24.85;10.90;;;;;;;14.42;100.00;164335.50;5070731;28;20073;-64
2023/05/25 08:15:04;;;;;;;15.63;6.55;;;;;;;14.98;100.00;164481.72;5069210;28;20044;-62
2023/05/25 08:17:29;;;;;;;13.13;4.50;;;;;;;15.05;100.00;164500.66;5070277;28;20107;-64
2023/05/25 08:19:55;;;;;;;12.35;6.10;;;;;;;14.50;100.00;164357.16;5069498;28;20040;-63
2023/05/25 08:22:20;;;;;;;17.70;7.43;;;;;;;14.34;100.00;164313.84;5070896;28;20024;-64
2023/05/25 08:24:46;;;;;;;13.27;6.53;;;;;;;13.92;100.00;164205.66;5068074;28;20040;-64
2023/05/25 08:27:11;;;;;;;16.30;7.78;;;;;;;13.66;100.00;164135.34;5069389;28;20029;-64
2023/05/25 08:29:37;;;;;;;13.70;6.97;;;;;;;13.51;100.00;164097.50;5069069;28;20049;-64
2023/05/25 08:32:02;;;;;;;9.65;6.53;;;;;;;13.45;100.00;164081.22;5070481;28;20024;-63
2023/05/25 08:34:28;;;;;;;13.43;5.88;;;;;;;13.32;100.00;164048.75;5069464;28;20045;-63
2023/05/25 08:36:53;;;;;;;13.70;5.97;;;;;;;13.19;100.00;164013.59;5070635;28;20510;-64
2023/05/25 08:39:19;;;;;;;14.38;5.95;;;;;;;13.18;100.00;164012.22;5068758;28;20032;-64
2023/05/25 08:41:44;;;;;;;15.43;8.48;;;;;;;13.30;100.00;164042.00;5070402;28;20021;-63
2023/05/25 08:44:13;;;;;;;19.60;7.53;;;;;;;13.33;100.00;164051.44;5053669;28;20042;-63
2023/05/25 08:46:38;;;;;;;13.68;6.60;;;;;;;13.12;100.00;163996.00;5030387;28;20427;-63
2023/05/25 08:49:11;;;;;;;19.00;8.27;;;;;;;13.15;100.00;164002.75;5029125;28;20029;-63
2023/05/25 08:51:40;;;;;;;16.85;8.43;;;;;;;13.06;100.00;163978.47;5030149;28;20029;-63
2023/05/25 08:54:08;;;;;;;10.18;5.63;;;;;;;13.15;100.00;164002.75;5028996;28;20044;-64
2023/05/25 08:56:40;;;;;;;10.75;5.57;;;;;;;13.27;100.00;164035.22;5030442;28;20029;-63
2023/05/25 08:59:21;;;;;;;13.77;6.30;;;;;;;13.27;100.00;164035.22;5029123;28;20396;-63
2023/05/25 09:01:54;;;;;;;9.57;5.60;;;;;;;13.46;100.00;164085.31;5029744;28;20049;-63
2023/05/25 09:04:22;;;;;;;10.13;5.82;;;;;;;13.57;100.00;164112.31;5028739;28;20120;-63
2023/05/25 09:06:47;;;;;;;13.75;7.35;;;;;;;13.79;100.00;164170.50;5030017;28;20029;-63
2023/05/25 09:09:13;;;;;;;12.00;6.45;;;;;;;13.98;100.00;164219.16;5028861;28;20515;-63
2023/05/25 09:11:40;;;;;;;14.48;5.22;;;;;;;14.19;100.00;164274.66;5033906;28;20048;-63
2023/05/25 09:14:07;;;;;;;9.38;3.72;;;;;;;14.30;100.00;164303.06;5032923;28;20056;-63
2023/05/25 09:16:33;;;;;;;10.90;4.65;;;;;;;14.33;100.00;164311.19;5033412;28;20045;-63
2023/05/25 09:18:59;;;;;;;13.10;5.00;;;;;;;14.46;100.00;164346.34;5032781;28;20539;-64
2023/05/25 09:21:25;;;;;;;11.27;5.50;;;;;;;14.65;100.00;164395.03;5033860;28;20021;-63
2023/05/25 09:23:50;;;;;;;11.98;5.63;;;;;;;15.30;100.00;164565.66;5031923;28;20049;-63
2023/05/25 09:26:16;;;;;;;7.15;4.95;;;;;;;15.91;100.00;164725.41;5034007;28;20021;-64
2023/05/25 09:28:48;;;;;;;7.90;4.97;;;;;;;16.27;100.00;164820.25;5032391;28;20107;-64
2023/05/25 09:31:14;;;;;;;10.43;5.60;;;;;;;16.21;100.00;164803.97;5033737;28;20365;-64
2023/05/25 09:33:40;;;;;;;15.20;4.28;;;;;;;16.00;100.00;164749.81;5032495;28;20420;-64
2023/05/25 09:36:06;;;;;;;12.50;3.97;;;;;;;15.51;100.00;164622.50;5033899;28;20041;-63
2023/05/25 09:38:32;;;;;;;11.73;5.97;;;;;;;15.28;100.00;164560.22;5031742;28;20103;-63
2023/05/25 09:40:57;;;;;;;10.10;4.88;;;;;;;15.64;100.00;164654.97;5033450;28;20060;-62
2023/05/25 09:43:23;;;;;;;10.13;4.00;;;;;;;15.74;100.00;164682.06;5034436;28;20384;-63
2023/05/25 09:45:51;;;;;;;6.28;2.92;;;;;;;15.64;100.00;164654.97;5072803;28;20377;-63
2023/05/25 09:48:17;;;;;;;7.07;3.33;;;;;;;15.49;100.00;164615.69;5073387;28;20185;-63
2023/05/25 09:50:42;;;;;;;11.57;4.22;;;;;;;15.17;100.00;164533.13;5071762;28;20036;-63
2023/05/25 09:53:08;;;;;;;15.52;4.25;;;;;;;15.21;100.00;164544.00;5073225;28;20027;-63
2023/05/25 09:55:35;;;;;;;10.52;4.85;;;;;;;15.06;100.00;164503.38;5071798;28;20110;-64
2023/05/25 09:58:01;;;;;;;14.20;9.03;;;;;;;14.98;100.00;164483.06;5073284;28;20028;-64
2023/05/25 10:00:26;;;;;;;8.82;4.22;;;;;;;14.84;100.00;164446.53;5071194;28;20051;-63
2023/05/25 10:02:52;;;;;;;8.48;4.90;;;;;;;14.75;100.00;164422.16;5072925;28;20028;-63
2023/05/25 10:05:17;;;;;;;14.52;5.60;;;;;;;15.12;100.00;164519.59;5071607;28;20556;-63
2023/05/25 10:07:45;;;;;;;8.48;3.95;;;;;;;15.25;100.00;164553.47;5072748;28;20482;-63
2023/05/25 10:10:15;;;;;;;7.57;3.92;;;;;;;15.39;100.00;164589.97;5071049;28;20041;-63
2023/05/25 10:12:42;;;;;;;15.00;5.50;;;;;;;15.70;100.00;164671.22;5072993;28;20017;-63
2023/05/25 10:15:10;;;;;;;8.00;4.22;;;;;;;15.88;100.00;164717.31;5059770;28;20052;-64
2023/05/25 10:17:46;;;;;;;9.52;4.38;;;;;;;15.83;100.00;164706.47;5058934;28;20040;-63
2023/05/25 10:20:13;;;;;;;10.73;3.88;;;;;;;15.63;100.00;164652.25;5071340;28;20033;-63
2023/05/25 10:22:55;;;;;;;11.60;3.65;;;;;;;15.35;100.00;164579.16;5071327;28;20036;-63
2023/05/25 10:25:32;;;;;;;7.53;4.55;;;;;;;15.31;100.00;164568.31;5071350;28;20044;-64
2023/05/25 10:28:12;;;;;;;7.97;3.70;;;;;;;15.24;100.00;164550.75;5072619;28;20070;-63
2023/05/25 10:30:38;;;;;;;7.35;3.20;;;;;;;15.34;100.00;164576.47;5070742;28;20040;-64
2023/05/25 10:33:04;;;;;;;23.08;11.65;;;;;;;15.58;100.00;164638.75;5072409;28;20036;-63
2023/05/25 10:35:30;;;;;;;8.30;5.00;;;;;;;15.76;100.00;164687.47;5070922;28;20036;-63
2023/05/25 10:37:55;;;;;;;10.55;4.18;;;;;;;15.80;100.00;164698.31;5071269;28;20081;-63
2023/05/25 10:40:22;;;;;;;8.52;3.60;;;;;;;15.89;100.00;164720.03;5069826;28;20051;-64
2023/05/25 10:42:49;;;;;;;7.80;3.58;;;;;;;16.25;100.00;164814.81;5072214;28;20115;-63
2023/05/25 10:45:15;;;;;;;8.45;3.45;;;;;;;16.49;100.00;164879.81;5070390;28;20060;-63
2023/05/25 10:47:41;;;;;;;9.13;3.80;;;;;;;16.64;100.00;164917.78;5072409;28;20028;-63
2023/05/25 10:50:18;;;;;;;10.30;3.70;;;;;;;16.46;100.00;164871.72;5070788;28;20044;-63
2023/05/25 10:52:43;;;;;;;6.85;3.20;;;;;;;16.41;100.00;164856.78;5071945;28;20008;-63
2023/05/25 10:55:09;;;;;;;15.32;4.78;;;;;;;16.26;100.00;164818.88;5070727;28;20097;-63
2023/05/25 10:57:34;;;;;;;7.63;3.45;;;;;;;15.88;100.00;164717.31;5072122;28;20487;-63
2023/05/25 11:00:07;;;;;;;9.32;4.18;;;;;;;16.27;100.00;164820.25;5070312;28;20036;-62
2023/05/25 11:02:53;;;;;;;12.95;5.25;;;;;;;16.85;100.00;164971.97;5071914;28;20029;-63
2023/05/25 11:05:24;;;;;;;14.15;3.10;;;;;;;16.89;100.00;164982.78;5070425;28;20041;-64
2023/05/25 11:07:57;;;;;;;18.50;4.57;;;;;;;17.00;100.00;165012.66;5071712;28;20024;-63
2023/05/25 11:10:41;;;;;;;16.27;5.15;;;;;;;16.70;100.00;164932.66;5070397;28;20037;-63